Val Verde, California
Current Conditions -  °F | °C
As of 3:48 AM on Thursday 23 Oct 2014 (Local Time) from KSDB Reporting Station
Clear Clear  
Wind Chill: 67°   Ceiling: Unl
Heat Index: 67°   Visibility: 10mi
Dew Point: 25°   Wind: 3mph
Humidity: 21%   Direction: NA
Pressure: 30.13"   Gusts: NA
Location:  34.5552°N, 118.643°W
Report Text: KSDB 231048Z AUTO VRB03KT 10SM CLR 19/M04 A3013 RMK AO2 SLP147 T01941039
Loading
Personal Weather Stations






























Interactive Weather Map
Tropical Storm Tracking
New forecast layout! Learn more

10-Day Weather Forecast

Advertisements
Track Severe Weather on mobile